Westover, New York
Current Conditions -  °F | °C
As of 7:53 AM on Friday 24 Oct 2014 (Local Time) from KBGM Reporting Station
Overcast Overcast  
Wind Chill:   Ceiling: 800
Heat Index:   Visibility: 10mi
Dew Point:   Wind: 12mph
Humidity: 89%   Direction: 320°NW
Pressure: 29.9"   Gusts: 20mph
Location:  42.1768°N, 76.0035°W
Report Text: KBGM 241153Z 32010G17KT 10SM BKN008 OVC012 08/06 A2990 RMK AO2 SLP132 70001 T00780061 10078 20072 50002
Loading
Personal Weather Stations






























Interactive Weather Map
Tropical Storm Tracking
New forecast layout! Learn more

10-Day Weather Forecast

Advertisements
Track Severe Weather on mobile